Cape Hatteras, North Carolina
Current Conditions -  °F | °C
As of 5:00 PM on Monday 22 Dec 2014 (Local Time) from KHSE Reporting Station
Moderate Fog Moderate Fog  
Wind Chill: 11°   Ceiling: 400
Heat Index: 11°   Visibility: 0.25mi
Dew Point: 11°   Wind: 5mph
Humidity: 100%   Direction: 350°N
Pressure: 29.95"   Gusts: NA
Location:  35.23°N, 75.62°W
Report Text: KHSE 222200Z AUTO 35004KT 1/4SM FG BKN004 BKN021 OVC045 11/11 A2995 RMK AO2 T01110111 TSNO $
Loading
Personal Weather Stations






























Interactive Weather Map New forecast layout! Learn more

10-Day Weather Forecast

Advertisements
Track Severe Weather on mobile